Time;durP1;ratioP1;P1;durP2;ratioP2;P2;SDS_P1;SDS_P2;PMS_P1;PMS_P2;Temp;Humidity;BMP_temperature;BMP_pressure;BME280_temperature;BME280_humidity;BME280_pressure;Samples;Min_cycle;Max_cycle;Signal;HPM_P1;HPM_P2
2022/03/21 00:02:06;;;;;;;75.60;50.78;;;;;;;-2.26;100.00;102886.09;5278518;28;20024;-80
2022/03/21 00:04:37;;;;;;;70.95;49.40;;;;;;;-2.36;100.00;102883.56;5280717;28;21446;-80
2022/03/21 00:07:08;;;;;;;75.55;50.20;;;;;;;-2.35;100.00;102884.41;5279994;28;20021;-79
2022/03/21 00:09:40;;;;;;;78.90;52.08;;;;;;;-2.30;100.00;102882.63;5280740;28;20128;-80
2022/03/21 00:12:14;;;;;;;64.80;45.70;;;;;;;-2.17;100.00;102880.84;5262343;28;20029;-80
2022/03/21 00:14:45;;;;;;;74.05;50.58;;;;;;;-2.24;100.00;102885.22;5280926;28;20036;-80
2022/03/21 00:17:16;;;;;;;74.80;49.13;;;;;;;-2.20;100.00;102880.84;5280147;28;20033;-79
2022/03/21 00:19:48;;;;;;;76.72;53.10;;;;;;;-2.37;100.00;102891.41;5263015;28;20039;-79
2022/03/21 00:22:20;;;;;;;68.03;45.53;;;;;;;-2.30;100.00;102891.38;5278002;28;20358;-80
2022/03/21 00:24:51;;;;;;;75.40;50.60;;;;;;;-2.37;100.00;102894.88;5281147;28;20155;-80
2022/03/21 00:27:22;;;;;;;75.80;51.35;;;;;;;-2.40;100.00;102894.91;5277020;28;20216;-80
2022/03/21 00:29:53;;;;;;;78.53;53.03;;;;;;;-2.43;100.00;102897.53;5281309;28;20033;-80
2022/03/21 00:32:25;;;;;;;72.88;46.53;;;;;;;-2.58;100.00;102900.22;5280673;28;20017;-79
2022/03/21 00:34:56;;;;;;;69.82;45.55;;;;;;;-2.66;100.00;102900.28;5279011;28;20159;-80
2022/03/21 00:37:28;;;;;;;65.70;43.42;;;;;;;-2.75;100.00;102897.69;5282130;28;42697;-80
2022/03/21 00:39:59;;;;;;;68.55;45.78;;;;;;;-2.61;100.00;102910.69;5284215;28;20544;-80
2022/03/21 00:42:34;;;;;;;72.35;49.58;;;;;;;-2.71;100.00;102912.47;5284410;28;20060;-79
2022/03/21 00:45:09;;;;;;;75.88;51.42;;;;;;;-2.80;100.00;102896.84;5265614;28;20829;-80
2022/03/21 00:47:42;;;;;;;80.07;51.75;;;;;;;-2.90;100.00;102914.28;5281594;28;20029;-80
2022/03/21 00:50:15;;;;;;;77.20;51.38;;;;;;;-2.77;100.00;102918.59;5282056;28;20067;-80
2022/03/21 00:52:48;;;;;;;77.47;51.22;;;;;;;-3.01;100.00;102903.03;5282063;28;20029;-79
2022/03/21 00:55:21;;;;;;;69.78;46.05;;;;;;;-2.93;100.00;102916.91;5280737;28;20025;-79
2022/03/21 00:57:53;;;;;;;70.05;46.53;;;;;;;-3.00;100.00;102907.34;5284380;28;20040;-80
2022/03/21 01:00:27;;;;;;;77.82;52.40;;;;;;;-3.08;100.00;102915.22;5284351;28;20018;-79
2022/03/21 01:03:00;;;;;;;65.20;42.35;;;;;;;-3.08;100.00;102916.09;5280772;28;20040;-79
2022/03/21 01:05:32;;;;;;;66.13;43.42;;;;;;;-3.14;100.00;102908.25;5281763;28;20075;-79
2022/03/21 01:08:04;;;;;;;76.07;48.88;;;;;;;-3.10;100.00;102923.06;5284235;28;20060;-79
2022/03/21 01:10:35;;;;;;;81.03;52.10;;;;;;;-3.24;100.00;102909.16;5282307;28;20119;-79
2022/03/21 01:13:07;;;;;;;76.40;48.42;;;;;;;-3.12;100.00;102922.19;5281440;28;20112;-79
2022/03/21 01:15:38;;;;;;;84.90;55.88;;;;;;;-3.14;100.00;102923.06;5283893;28;20086;-79
2022/03/21 01:18:10;;;;;;;79.20;51.08;;;;;;;-3.31;100.00;102916.13;5283583;28;20044;-79
2022/03/21 01:20:41;;;;;;;81.72;52.05;;;;;;;-3.23;100.00;102916.09;5284806;28;20029;-79
2022/03/21 01:23:12;;;;;;;72.97;46.60;;;;;;;-3.21;100.00;102914.34;5283611;28;20032;-79
2022/03/21 01:25:44;;;;;;;87.95;56.50;;;;;;;-3.14;100.00;102926.53;5282261;28;41571;-79
2022/03/21 01:28:15;;;;;;;92.60;60.30;;;;;;;-2.99;100.00;102936.06;5282764;28;20454;-79
2022/03/21 01:30:46;;;;;;;73.88;47.15;;;;;;;-2.69;100.00;102921.19;5265590;28;20036;-79
2022/03/21 01:33:18;;;;;;;102.60;60.90;;;;;;;-2.50;100.00;102932.44;5282493;28;20033;-79
2022/03/21 01:35:49;;;;;;;76.47;48.08;;;;;;;-2.19;100.00;102930.53;5280643;28;28931;-79
2022/03/21 01:38:20;;;;;;;102.93;61.20;;;;;;;-2.22;100.00;102924.44;5280185;28;20044;-80
2022/03/21 01:40:51;;;;;;;111.50;67.10;;;;;;;-2.14;100.00;102927.84;5281176;28;20481;-79
2022/03/21 01:43:24;;;;;;;93.78;57.42;;;;;;;-1.85;100.00;102932.91;5279846;28;20055;-79
2022/03/21 01:45:55;;;;;;;87.72;52.33;;;;;;;-1.73;100.00;102929.34;5283822;28;21440;-80
2022/03/21 01:48:26;;;;;;;122.55;69.53;;;;;;;-1.58;100.00;102930.94;5283302;28;20032;-79
2022/03/21 01:50:58;;;;;;;87.72;50.88;;;;;;;-1.42;100.00;102929.06;5265519;28;20032;-79
2022/03/21 01:56:19;;;;;;;97.93;59.05;;;;;;;-1.19;100.00;102923.63;5281722;28;20041;-79
2022/03/21 01:58:51;;;;;;;87.20;54.17;;;;;;;-1.34;100.00;102920.25;5278821;28;20044;-79
2022/03/21 02:01:22;;;;;;;90.18;53.45;;;;;;;-1.34;100.00;102930.72;5276954;28;20021;-79
2022/03/21 02:03:53;;;;;;;87.90;52.83;;;;;;;-1.38;100.00;102934.25;5262960;28;20053;-79
2022/03/21 02:06:28;;;;;;;84.95;51.30;;;;;;;-1.41;100.00;102925.56;5282782;28;20039;-79
2022/03/21 02:09:02;;;;;;;87.38;55.30;;;;;;;-1.72;100.00;102933.66;5282681;28;20029;-79
2022/03/21 02:11:35;;;;;;;82.78;55.28;;;;;;;-1.92;100.00;102924.22;5279459;28;20033;-79
2022/03/21 02:14:08;;;;;;;82.55;53.33;;;;;;;-2.16;100.00;102916.53;5280769;28;20025;-79
2022/03/21 02:16:39;;;;;;;95.60;59.28;;;;;;;-2.22;100.00;102929.66;5281068;28;20383;-79
2022/03/21 02:19:31;;;;;;;85.97;54.58;;;;;;;-2.45;100.00;102933.28;5282679;28;20465;-79
2022/03/21 02:22:19;;;;;;;92.20;58.80;;;;;;;-2.57;100.00;102931.56;5261520;28;20064;-79
2022/03/21 02:25:03;;;;;;;93.65;58.88;;;;;;;-2.59;100.00;102935.09;5279785;28;20101;-79
2022/03/21 02:27:35;;;;;;;87.22;55.80;;;;;;;-2.77;100.00;102925.56;5276795;28;20030;-79
2022/03/21 02:30:07;;;;;;;93.10;59.35;;;;;;;-2.82;100.00;102938.66;5280263;28;20020;-80
2022/03/21 02:32:40;;;;;;;83.05;54.53;;;;;;;-2.89;100.00;102939.53;5263411;28;20039;-79
2022/03/21 02:35:13;;;;;;;93.60;58.13;;;;;;;-2.93;100.00;102943.03;5281156;28;20024;-79
2022/03/21 02:37:46;;;;;;;100.40;62.47;;;;;;;-2.79;100.00;102943.84;5265177;28;20052;-79
2022/03/21 02:40:17;;;;;;;92.75;58.10;;;;;;;-2.90;100.00;102941.28;5291828;28;20033;-79
2022/03/21 02:42:49;;;;;;;97.97;61.50;;;;;;;-2.90;100.00;102940.41;5260608;28;20040;-78
2022/03/21 02:45:21;;;;;;;103.80;62.15;;;;;;;-2.85;100.00;102933.44;5294891;28;20037;-79
2022/03/21 02:47:52;;;;;;;98.65;62.17;;;;;;;-2.87;100.00;102941.25;5294400;28;20452;-78
2022/03/21 02:50:32;;;;;;;96.93;61.13;;;;;;;-2.82;100.00;102940.38;5291002;28;20063;-78
2022/03/21 02:53:06;;;;;;;97.10;61.72;;;;;;;-2.86;100.00;102937.78;5288742;28;20472;-79
2022/03/21 02:55:39;;;;;;;103.18;63.22;;;;;;;-2.98;100.00;102916.03;5285544;28;20119;-79
2022/03/21 02:58:10;;;;;;;99.63;62.10;;;;;;;-3.02;100.00;102922.16;5286931;28;20036;-79
2022/03/21 03:00:42;;;;;;;98.05;60.97;;;;;;;-2.92;100.00;102936.94;5287224;28;20021;-79
2022/03/21 03:03:13;;;;;;;97.05;61.58;;;;;;;-2.89;100.00;102929.97;5285224;28;20035;-79
2022/03/21 03:05:44;;;;;;;106.75;64.53;;;;;;;-2.92;100.00;102929.97;5265874;28;20032;-79
2022/03/21 03:08:15;;;;;;;90.95;57.95;;;;;;;-3.09;100.00;102921.31;5280616;28;34463;-79
2022/03/21 03:10:47;;;;;;;101.05;62.30;;;;;;;-3.10;100.00;102932.63;5282024;28;20021;-79
2022/03/21 03:13:18;;;;;;;100.03;60.42;;;;;;;-3.20;100.00;102915.25;5281714;28;20037;-79
2022/03/21 03:15:49;;;;;;;101.22;62.65;;;;;;;-3.11;100.00;102934.34;5279727;28;20064;-79
2022/03/21 03:18:20;;;;;;;103.38;63.30;;;;;;;-3.02;100.00;102933.47;5263086;28;20032;-79
2022/03/21 03:20:55;;;;;;;90.05;56.13;;;;;;;-3.06;100.00;102927.38;5281957;28;20112;-79
2022/03/21 03:23:30;;;;;;;89.55;57.17;;;;;;;-3.20;100.00;102926.56;5263120;28;20372;-79
2022/03/21 03:26:03;;;;;;;98.53;62.22;;;;;;;-3.11;100.00;102931.75;5262956;28;20359;-79
2022/03/21 03:28:35;;;;;;;106.63;63.25;;;;;;;-3.06;100.00;102931.75;5280001;28;20382;-79
2022/03/21 03:31:06;;;;;;;92.28;57.55;;;;;;;-2.98;100.00;102932.59;5282038;28;20036;-79
2022/03/21 03:33:37;;;;;;;97.10;57.97;;;;;;;-3.06;100.00;102936.97;5280123;28;20029;-79
2022/03/21 03:36:09;;;;;;;105.22;64.57;;;;;;;-3.16;100.00;102936.09;5282161;28;20051;-79
2022/03/21 03:38:40;;;;;;;107.72;65.65;;;;;;;-3.07;100.00;102941.34;5282122;28;20401;-79
2022/03/21 03:41:12;;;;;;;117.50;68.38;;;;;;;-2.99;100.00;102940.44;5279866;28;20087;-79
2022/03/21 03:43:44;;;;;;;119.22;71.93;;;;;;;-2.79;100.00;102949.06;5280299;28;20035;-79
2022/03/21 03:46:17;;;;;;;119.63;72.07;;;;;;;-2.68;100.00;102952.53;5282132;28;20764;-79
2022/03/21 03:48:49;;;;;;;121.28;71.80;;;;;;;-2.64;100.00;102947.31;5281774;28;20037;-77
2022/03/21 03:51:21;;;;;;;121.95;69.93;;;;;;;-2.60;100.00;102951.63;5263642;28;20039;-78
2022/03/21 03:53:52;;;;;;;121.10;72.38;;;;;;;-2.60;100.00;102949.00;5263627;28;20497;-78
2022/03/21 03:56:24;;;;;;;120.05;70.90;;;;;;;-2.52;100.00;102955.94;5263165;28;20059;-78
2022/03/21 03:58:55;;;;;;;117.75;70.10;;;;;;;-2.50;100.00;102958.56;5280188;28;20108;-78
2022/03/21 04:01:26;;;;;;;112.20;69.28;;;;;;;-2.52;100.00;102949.84;5263411;28;20912;-78
2022/03/21 04:03:59;;;;;;;114.63;67.70;;;;;;;-2.48;100.00;102951.56;5280178;28;20025;-78
2022/03/21 04:06:30;;;;;;;113.95;68.63;;;;;;;-2.50;100.00;102962.03;5281954;28;20508;-78
2022/03/21 04:09:02;;;;;;;113.72;68.28;;;;;;;-2.47;100.00;102955.94;5282481;28;20025;-78
2022/03/21 04:11:34;;;;;;;108.30;62.92;;;;;;;-2.37;100.00;102970.69;5279749;28;20057;-78
2022/03/21 04:14:05;;;;;;;90.35;51.63;;;;;;;-2.32;100.00;102958.47;5264251;28;20357;-78
2022/03/21 04:16:38;;;;;;;105.25;62.38;;;;;;;-2.54;100.00;102957.72;5290598;28;20048;-77
2022/03/21 04:19:11;;;;;;;84.70;53.25;;;;;;;-2.28;100.00;102962.81;5281183;28;20060;-78
2022/03/21 04:21:43;;;;;;;121.50;71.95;;;;;;;-2.26;100.00;102956.69;5283382;28;20021;-78
2022/03/21 04:24:14;;;;;;;118.88;69.80;;;;;;;-2.38;100.00;102942.81;5266289;28;20075;-78
2022/03/21 04:26:45;;;;;;;113.25;69.53;;;;;;;-2.33;100.00;102961.06;5262312;28;30397;-78
2022/03/21 04:29:16;;;;;;;123.28;70.68;;;;;;;-2.35;100.00;102965.44;5262575;28;20445;-78
2022/03/21 04:31:48;;;;;;;114.47;69.10;;;;;;;-2.48;100.00;102949.81;5280715;28;20543;-78
2022/03/21 04:34:19;;;;;;;111.07;67.50;;;;;;;-2.55;100.00;102937.66;5274841;28;20129;-78
2022/03/21 04:36:50;;;;;;;102.18;60.78;;;;;;;-2.54;100.00;102959.44;5275224;28;20038;-78
2022/03/21 04:39:21;;;;;;;72.47;46.33;;;;;;;-2.56;100.00;102956.84;5277597;28;20083;-78
2022/03/21 04:41:53;;;;;;;79.57;47.47;;;;;;;-2.69;100.00;102956.00;5280439;28;20029;-78
2022/03/21 04:44:24;;;;;;;92.20;54.28;;;;;;;-2.64;100.00;102962.97;5261668;28;20086;-79
2022/03/21 04:46:55;;;;;;;112.45;65.82;;;;;;;-2.64;100.00;102962.97;5280239;28;20033;-79
2022/03/21 04:49:27;;;;;;;113.68;65.85;;;;;;;-2.49;100.00;102962.88;5279103;28;20029;-79
2022/03/21 04:51:58;;;;;;;89.57;51.20;;;;;;;-2.38;100.00;102953.28;5280193;28;20132;-79
2022/03/21 04:54:30;;;;;;;88.15;49.10;;;;;;;-2.14;100.00;102951.38;5278325;28;20071;-78
2022/03/21 04:57:06;;;;;;;93.95;53.42;;;;;;;-1.98;100.00;102963.50;5280419;28;20029;-78
2022/03/21 04:59:38;;;;;;;89.13;52.15;;;;;;;-1.95;100.00;102966.09;5279280;28;20040;-79
2022/03/21 05:02:09;;;;;;;103.13;56.13;;;;;;;-1.96;100.00;102968.75;5280786;28;20033;-79
2022/03/21 05:04:40;;;;;;;97.53;53.78;;;;;;;-2.04;100.00;102966.16;5281084;28;20405;-79
2022/03/21 05:07:19;;;;;;;96.55;53.55;;;;;;;-2.16;100.00;102980.16;5280385;28;20374;-79
2022/03/21 05:09:50;;;;;;;132.55;73.50;;;;;;;-2.40;100.00;102978.56;5261434;28;20028;-79
2022/03/21 05:12:22;;;;;;;132.05;73.57;;;;;;;-2.47;100.00;102977.72;5279867;28;20377;-78
2022/03/21 05:14:53;;;;;;;121.93;69.88;;;;;;;-2.56;100.00;102988.22;5280317;28;20029;-78
2022/03/21 05:17:28;;;;;;;130.35;69.65;;;;;;;-2.62;100.00;102985.59;5278266;28;20036;-77
2022/03/21 05:20:00;;;;;;;122.40;70.20;;;;;;;-2.67;100.00;102984.75;5280596;28;20040;-78
2022/03/21 05:22:31;;;;;;;122.25;68.80;;;;;;;-2.65;100.00;102988.22;5259069;28;20032;-78
2022/03/21 05:30:58;;;;;;;120.20;67.93;;;;;;;-2.57;100.00;102985.59;5282171;28;20029;-78
2022/03/21 05:36:25;;;;;;;84.50;49.25;;;;;;;-2.53;100.00;102969.88;5277950;28;20069;-78
2022/03/21 05:38:58;;;;;;;84.40;48.17;;;;;;;-2.49;100.00;102987.31;5281655;28;20083;-78
2022/03/21 05:41:29;;;;;;;123.22;67.78;;;;;;;-2.61;100.00;102976.91;5281364;28;20389;-78
2022/03/21 05:44:00;;;;;;;123.78;70.32;;;;;;;-2.70;100.00;102967.34;5283842;28;20028;-78
2022/03/21 05:46:32;;;;;;;119.03;62.83;;;;;;;-2.29;100.00;102983.72;5283162;28;20039;-78
2022/03/21 05:49:04;;;;;;;109.28;61.50;;;;;;;-1.97;100.00;102977.44;5284074;28;20111;-77
2022/03/21 05:51:37;;;;;;;115.18;59.45;;;;;;;-1.72;100.00;102984.28;5283164;28;20025;-78
2022/03/21 05:54:11;;;;;;;132.00;61.50;;;;;;;-1.47;100.00;102989.31;5261564;28;20043;-77
2022/03/21 05:56:43;;;;;;;132.57;67.43;;;;;;;-1.36;100.00;102990.09;5279291;28;20033;-78
2022/03/21 06:02:05;;;;;;;149.32;72.82;;;;;;;-1.08;100.00;102996.84;5283239;28;20025;-78
2022/03/21 06:04:36;;;;;;;164.80;77.47;;;;;;;-1.25;100.00;102999.59;5262157;28;20121;-78
2022/03/21 06:07:07;;;;;;;176.27;86.50;;;;;;;-1.27;100.00;103001.38;5264201;28;20029;-78
2022/03/21 06:09:39;;;;;;;151.93;79.93;;;;;;;-1.41;100.00;102993.63;5284210;28;20087;-78
2022/03/21 06:12:10;;;;;;;153.27;78.78;;;;;;;-1.53;100.00;103003.31;5283509;28;20100;-77
2022/03/21 06:14:41;;;;;;;141.27;75.50;;;;;;;-1.61;100.00;102999.91;5287333;28;20059;-79
2022/03/21 06:17:12;;;;;;;138.82;77.05;;;;;;;-1.68;100.00;103007.78;5287041;28;20505;-80
2022/03/21 06:19:44;;;;;;;136.18;75.43;;;;;;;-1.72;100.00;103004.31;5272073;28;20021;-80
2022/03/21 06:22:15;;;;;;;134.15;73.47;;;;;;;-1.78;100.00;102993.91;5275135;28;20108;-79
2022/03/21 06:24:46;;;;;;;131.45;72.10;;;;;;;-1.74;100.00;103000.84;5276096;28;20417;-80
2022/03/21 06:27:18;;;;;;;116.40;64.07;;;;;;;-1.63;100.00;103016.47;5274521;28;20365;-80
2022/03/21 06:29:49;;;;;;;131.43;70.55;;;;;;;-1.66;100.00;103013.91;5280406;28;20025;-80
2022/03/21 06:32:21;;;;;;;121.15;69.60;;;;;;;-1.62;100.00;103015.59;5262083;28;20380;-80
2022/03/21 06:34:52;;;;;;;127.13;72.72;;;;;;;-1.57;100.00;103019.06;5282855;28;20017;-80
2022/03/21 06:37:24;;;;;;;133.95;73.32;;;;;;;-1.50;100.00;103006.81;5284525;28;20083;-79
2022/03/21 06:39:55;;;;;;;131.60;75.28;;;;;;;-1.36;100.00;103016.28;5285021;28;20037;-80
2022/03/21 06:42:26;;;;;;;150.75;78.15;;;;;;;-1.37;100.00;103011.94;5283778;28;20025;-80
2022/03/21 06:44:58;;;;;;;157.85;82.75;;;;;;;-0.71;100.00;103026.16;5286027;28;20430;-79
2022/03/21 06:47:29;;;;;;;164.75;87.50;;;;;;;-0.06;100.00;103021.00;5285682;28;20036;-80
2022/03/21 06:50:00;;;;;;;169.23;90.15;;;;;;;0.63;100.00;103021.75;5282704;28;20056;-80
2022/03/21 06:52:35;;;;;;;166.23;89.80;;;;;;;0.81;100.00;103030.19;5284898;28;20017;-80
2022/03/21 06:55:10;;;;;;;149.82;84.20;;;;;;;1.58;100.00;103026.16;5283321;28;20040;-80
2022/03/21 06:57:41;;;;;;;127.80;78.32;;;;;;;1.90;100.00;103038.69;5280143;28;20029;-80
2022/03/21 07:00:13;;;;;;;113.18;71.80;;;;;;;2.52;100.00;103032.03;5280826;28;20025;-80
2022/03/21 07:02:45;;;;;;;93.35;64.38;;;;;;;3.18;100.00;103040.91;5263052;28;20394;-80
2022/03/21 07:05:16;;;;;;;81.85;59.75;;;;;;;3.81;100.00;103049.72;5262946;28;20041;-80
2022/03/21 07:07:50;;;;;;;65.75;51.72;;;;;;;4.39;100.00;103040.94;5263150;28;20026;-79
2022/03/21 07:10:22;;;;;;;60.25;46.85;;;;;;;4.70;100.00;103035.53;5244891;28;20018;-79
2022/03/21 07:12:53;;;;;;;52.85;44.75;;;;;;;5.69;100.00;103057.63;5273464;28;20023;-80
2022/03/21 07:15:24;;;;;;;53.05;42.38;;;;;;;6.22;100.00;103048.63;5273465;28;20021;-79
2022/03/21 07:17:56;;;;;;;51.00;39.53;;;;;;;6.21;100.00;103038.09;5283501;28;20021;-80
2022/03/21 07:20:27;;;;;;;48.03;36.72;;;;;;;7.33;100.00;103041.38;5282937;28;20056;-80
2022/03/21 07:22:59;;;;;;;48.42;38.40;;;;;;;7.66;100.00;103031.94;5283492;28;20044;-80
2022/03/21 07:25:31;;;;;;;46.63;37.10;;;;;;;8.03;100.00;103036.44;5282662;28;20112;-80
2022/03/21 07:28:02;;;;;;;42.88;35.25;;;;;;;8.45;100.00;103023.81;5283058;28;20099;-78
2022/03/21 07:30:33;;;;;;;43.10;34.90;;;;;;;8.80;100.00;103027.41;5283506;28;20017;-77
2022/03/21 07:33:05;;;;;;;39.03;34.53;;;;;;;10.10;100.00;103034.75;5283571;28;20029;-78
2022/03/21 07:35:36;;;;;;;37.90;33.28;;;;;;;11.15;100.00;103028.72;5283546;28;20075;-79
2022/03/21 07:38:08;;;;;;;37.22;31.65;;;;;;;11.60;100.00;103023.28;5282635;28;20056;-79
2022/03/21 07:40:40;;;;;;;34.33;30.55;;;;;;;12.38;100.00;103030.81;5264456;28;20037;-79
2022/03/21 07:43:12;;;;;;;41.40;30.45;;;;;;;12.39;100.00;103021.81;5283171;28;20051;-80
2022/03/21 07:48:33;;;;;;;38.97;28.98;;;;;;;13.63;100.00;103025.03;5283079;28;20029;-80
2022/03/21 07:51:05;;;;;;;34.70;28.25;;;;;;;14.41;100.00;103026.50;5283317;28;20059;-80
2022/03/21 07:53:36;;;;;;;31.15;25.92;;;;;;;14.88;100.00;103030.13;5283003;28;20021;-80
2022/03/21 07:56:08;;;;;;;28.58;25.52;;;;;;;15.08;100.00;103028.63;5282248;28;20025;-80
2022/03/21 07:58:40;;;;;;;31.90;25.70;;;;;;;16.29;93.19;103028.84;5283269;28;20612;-80
2022/03/21 08:01:11;;;;;;;28.23;24.30;;;;;;;15.88;96.66;103020.50;5283029;28;20091;-80
2022/03/21 08:03:43;;;;;;;29.05;24.77;;;;;;;16.76;90.45;103029.38;5282663;28;20017;-80
2022/03/21 08:06:14;;;;;;;25.23;22.23;;;;;;;17.14;75.21;103024.41;5264417;28;20032;-80
2022/03/21 08:08:48;;;;;;;27.65;21.63;;;;;;;18.70;65.26;103025.72;5283000;28;20492;-81
2022/03/21 08:11:23;;;;;;;25.45;20.48;;;;;;;19.51;53.64;103028.97;5263438;28;20116;-80
2022/03/21 08:13:54;;;;;;;23.08;18.75;;;;;;;19.67;46.91;103031.91;5285015;28;20166;-81
2022/03/21 08:16:25;;;;;;;23.45;18.52;;;;;;;19.87;48.23;103031.84;5296307;28;20017;-81
2022/03/21 08:18:57;;;;;;;22.75;19.25;;;;;;;20.27;48.67;103034.16;5298069;28;20068;-81
2022/03/21 08:21:28;;;;;;;21.10;16.70;;;;;;;21.10;42.28;103028.44;5297858;28;20104;-81
2022/03/21 08:24:00;;;;;;;20.15;17.65;;;;;;;22.04;40.88;103034.00;5274401;28;20056;-81
2022/03/21 08:26:31;;;;;;;20.23;16.83;;;;;;;22.01;38.62;103032.47;5267425;28;20334;-81
2022/03/21 08:29:03;;;;;;;19.02;16.30;;;;;;;22.24;37.54;103031.84;5268735;28;20014;-81
2022/03/21 08:31:34;;;;;;;18.15;16.20;;;;;;;23.26;36.93;103026.94;5272559;28;20025;-81
2022/03/21 08:34:06;;;;;;;25.83;16.40;;;;;;;23.24;35.35;103030.84;5286215;28;20033;-81
2022/03/21 08:36:37;;;;;;;20.50;16.13;;;;;;;23.77;34.46;103027.44;5284711;28;20119;-81
2022/03/21 08:39:11;;;;;;;17.98;15.23;;;;;;;24.97;34.01;103028.00;5282870;28;20035;-81
2022/03/21 08:41:42;;;;;;;22.60;15.65;;;;;;;24.99;31.26;103023.19;5282584;28;20107;-81
2022/03/21 08:44:14;;;;;;;17.52;14.35;;;;;;;25.46;30.86;103019.28;5265006;28;20028;-81
2022/03/21 08:46:46;;;;;;;22.20;14.98;;;;;;;26.01;32.00;103023.34;5282819;28;20025;-81
2022/03/21 08:49:23;;;;;;;15.95;12.55;;;;;;;26.49;28.54;103024.66;5282386;28;20017;-81
2022/03/21 08:51:55;;;;;;;19.48;12.98;;;;;;;26.50;27.67;103027.22;5281959;28;20031;-81
2022/03/21 08:54:27;;;;;;;16.45;12.75;;;;;;;26.53;27.66;103020.53;5282064;28;20025;-82
2022/03/21 08:56:59;;;;;;;20.30;12.00;;;;;;;26.86;27.54;103011.75;5283301;28;20454;-82
2022/03/21 08:59:31;;;;;;;16.90;12.13;;;;;;;27.31;25.83;103018.63;5285699;28;21379;-81
2022/03/21 09:02:03;;;;;;;16.30;12.57;;;;;;;27.61;25.66;103021.09;5285581;28;20031;-81
2022/03/21 09:04:35;;;;;;;20.17;12.70;;;;;;;27.96;24.98;103021.00;5284860;28;20028;-81
2022/03/21 09:07:09;;;;;;;17.80;12.82;;;;;;;28.60;24.82;103014.19;5285647;28;20441;-82
2022/03/21 09:09:41;;;;;;;16.83;12.15;;;;;;;28.08;24.93;103007.53;5267069;28;20021;-81
2022/03/21 09:12:13;;;;;;;16.40;11.82;;;;;;;29.22;23.63;103019.41;5266529;28;20021;-82
2022/03/21 09:14:44;;;;;;;17.90;13.05;;;;;;;28.99;23.59;103011.59;5285985;28;20469;-82
2022/03/21 09:17:15;;;;;;;17.95;13.23;;;;;;;29.35;23.24;103022.13;5271585;28;20021;-82
2022/03/21 09:19:47;;;;;;;15.57;12.23;;;;;;;28.40;24.11;103021.50;5264681;28;20028;-81
2022/03/21 09:22:18;;;;;;;16.58;13.15;;;;;;;28.46;24.40;103024.28;5264386;28;20064;-82
2022/03/21 09:24:51;;;;;;;18.15;13.13;;;;;;;29.10;23.24;103018.34;5246649;28;20033;-81
2022/03/21 09:27:23;;;;;;;16.13;12.55;;;;;;;30.71;22.76;103014.56;5281230;28;20140;-82
2022/03/21 09:29:55;;;;;;;18.35;13.57;;;;;;;30.28;22.37;103015.31;5286158;28;20485;-82
2022/03/21 09:32:26;;;;;;;16.17;12.82;;;;;;;30.82;22.24;103004.72;5285651;28;20091;-82
2022/03/21 09:34:58;;;;;;;18.80;13.15;;;;;;;30.40;21.67;103012.72;5285384;28;20484;-82
2022/03/21 09:37:29;;;;;;;19.88;12.90;;;;;;;31.46;21.28;103004.47;5284795;28;20044;-82
2022/03/21 09:40:01;;;;;;;19.30;12.93;;;;;;;31.47;21.13;103001.47;5267512;28;20027;-82
2022/03/21 09:42:33;;;;;;;17.20;12.57;;;;;;;32.58;20.64;102989.25;5284657;28;20112;-82
2022/03/21 09:45:06;;;;;;;15.90;12.88;;;;;;;31.93;20.50;102996.44;5285325;28;20025;-82
2022/03/21 09:50:36;;;;;;;15.82;12.07;;;;;;;33.66;19.15;102991.63;5285218;28;20025;-82
2022/03/21 09:53:11;;;;;;;17.00;11.63;;;;;;;33.63;18.62;102989.38;5284976;28;20028;-82
2022/03/21 09:55:43;;;;;;;;;;;;;;;36.60;17.78;102992.53;5277825;28;20108;-82
2022/03/21 09:58:14;;;;;;;17.52;12.52;;;;;;;32.79;18.00;102991.44;5264044;28;20012;-82
2022/03/21 10:00:48;;;;;;;14.85;12.27;;;;;;;34.00;18.39;102989.81;5264023;28;20037;-82
2022/03/21 10:03:20;;;;;;;16.23;10.90;;;;;;;32.94;18.78;102985.44;5279266;28;20021;-82
2022/03/21 10:05:51;;;;;;;15.48;12.05;;;;;;;34.17;18.39;102989.81;5249992;28;20083;-82
2022/03/21 10:08:24;;;;;;;18.10;12.75;;;;;;;35.02;17.99;102981.44;5283065;28;20017;-82
2022/03/21 10:10:59;;;;;;;17.45;12.55;;;;;;;33.12;18.69;102972.53;5265655;28;20031;-82
2022/03/21 10:13:36;;;;;;;15.43;11.50;;;;;;;35.39;16.98;102980.84;5284007;28;20048;-82
2022/03/21 10:16:12;;;;;;;17.52;11.55;;;;;;;35.37;17.56;102974.72;5266156;28;20412;-82
2022/03/21 10:18:52;;;;;;;14.52;10.88;;;;;;;35.91;17.31;102973.91;5284038;28;20493;-82
2022/03/21 10:21:29;;;;;;;15.05;11.25;;;;;;;32.72;19.47;102976.09;5283931;28;20481;-82
2022/03/21 10:24:06;;;;;;;16.15;11.77;;;;;;;33.94;17.88;102967.81;5265816;28;20397;-82
2022/03/21 10:26:43;;;;;;;16.85;11.20;;;;;;;35.20;17.88;102960.88;5265777;28;20048;-82
2022/03/21 10:29:15;;;;;;;17.35;11.65;;;;;;;32.69;17.59;102969.09;5265283;28;20021;-82
2022/03/21 10:31:48;;;;;;;13.73;11.05;;;;;;;34.76;17.03;102969.19;5284355;28;20025;-82
2022/03/21 10:34:23;;;;;;;16.45;11.57;;;;;;;35.43;16.88;102965.31;5266104;28;20023;-82
2022/03/21 10:37:05;;;;;;;13.60;11.15;;;;;;;36.36;17.13;102964.28;5284068;28;20123;-81
2022/03/21 10:39:39;;;;;;;14.00;11.27;;;;;;;36.69;16.04;102963.16;5265961;28;20033;-81
2022/03/21 10:42:11;;;;;;;17.02;12.27;;;;;;;36.48;15.76;102976.03;5283728;28;20032;-81
2022/03/21 10:44:54;;;;;;;19.48;13.02;;;;;;;36.13;17.23;102963.56;5284035;28;20326;-81
2022/03/21 10:47:25;;;;;;;17.02;12.45;;;;;;;36.30;16.08;102974.53;5271041;28;20017;-81
2022/03/21 10:50:01;;;;;;;15.40;12.47;;;;;;;35.87;16.52;102959.72;5284314;28;20048;-81
2022/03/21 10:52:32;;;;;;;18.05;12.48;;;;;;;37.16;15.96;102955.03;5283665;28;20331;-81
2022/03/21 10:55:04;;;;;;;17.43;12.00;;;;;;;37.15;15.89;102959.75;5284164;28;20036;-81
2022/03/21 10:57:37;;;;;;;19.60;13.38;;;;;;;36.07;16.15;102949.91;5283924;28;20280;-81
2022/03/21 11:00:21;;;;;;;17.33;12.48;;;;;;;34.91;17.42;102954.72;5283869;28;20052;-81
2022/03/21 11:03:09;;;;;;;17.30;13.00;;;;;;;36.18;16.79;102950.81;5274016;28;20037;-82
2022/03/21 11:05:43;;;;;;;17.63;13.20;;;;;;;36.03;16.78;102951.50;5262442;28;20559;-82
2022/03/21 11:08:16;;;;;;;18.15;12.63;;;;;;;34.75;17.17;102937.88;5262292;28;20152;-82
2022/03/21 11:10:48;;;;;;;14.38;12.73;;;;;;;33.69;17.56;102933.06;5262767;28;20026;-82
2022/03/21 11:13:20;;;;;;;16.23;11.53;;;;;;;33.49;19.17;102937.09;5271073;28;20476;-82
2022/03/21 11:15:52;;;;;;;20.92;14.18;;;;;;;35.80;16.90;102934.09;5263601;28;20258;-82
2022/03/21 11:18:25;;;;;;;19.33;13.23;;;;;;;33.52;18.39;102936.59;5263058;28;20025;-82
2022/03/21 11:20:58;;;;;;;18.15;13.90;;;;;;;35.69;16.78;102926.75;5262163;28;20033;-82
2022/03/21 11:23:30;;;;;;;19.63;13.80;;;;;;;33.77;17.86;102929.03;5269922;28;20140;-82
2022/03/21 11:26:28;;;;;;;14.73;11.95;;;;;;;35.86;18.31;102935.00;5283564;28;20037;-82
2022/03/21 11:29:29;;;;;;;20.10;13.07;;;;;;;37.63;16.54;102935.41;5283797;28;20024;-82
2022/03/21 11:32:38;;;;;;;18.42;13.07;;;;;;;36.87;16.53;102928.50;5283378;28;20115;-82
2022/03/21 11:35:25;;;;;;;16.25;13.32;;;;;;;36.89;16.67;102929.06;5283015;28;20025;-82
2022/03/21 11:38:25;;;;;;;16.30;13.02;;;;;;;38.35;17.30;102931.81;5282386;28;20040;-82
2022/03/21 11:41:18;;;;;;;16.13;13.23;;;;;;;38.47;15.68;102928.72;5282835;28;20025;-82
2022/03/21 11:44:04;;;;;;;17.63;13.48;;;;;;;36.02;17.20;102920.13;5283002;28;20033;-81
2022/03/21 11:46:37;;;;;;;15.75;13.93;;;;;;;32.88;18.52;102917.31;5281792;28;36830;-82
2022/03/21 11:49:17;;;;;;;13.70;12.02;;;;;;;36.39;17.83;102912.94;5265109;28;20296;-82